createdAt,value
2023-03-21T00:00:43.938Z,6.89
2023-03-21T00:03:11.639Z,6.89
2023-03-21T00:05:42.603Z,6.81
2023-03-21T00:08:09.649Z,6.80
2023-03-21T00:10:42.189Z,6.79
2023-03-21T00:13:13.485Z,6.69
2023-03-21T00:16:04.032Z,6.68
2023-03-21T00:18:36.922Z,6.53
2023-03-21T00:21:37.733Z,6.40
2023-03-21T00:23:52.862Z,6.32
2023-03-21T00:26:19.833Z,6.34
2023-03-21T00:28:46.625Z,6.24
2023-03-21T00:31:13.394Z,6.12
2023-03-21T00:33:40.228Z,6.09
2023-03-21T00:36:09.175Z,5.95
2023-03-21T00:38:36.493Z,5.82
2023-03-21T00:41:23.345Z,5.74
2023-03-21T00:43:58.386Z,5.53
2023-03-21T00:46:27.634Z,5.70
2023-03-21T00:48:57.098Z,5.73
2023-03-21T00:51:27.587Z,5.64
2023-03-21T00:53:56.966Z,5.61
2023-03-21T00:56:23.754Z,5.44
2023-03-21T00:58:51.304Z,5.42
2023-03-21T01:01:18.602Z,5.44
2023-03-21T01:03:50.831Z,5.46
2023-03-21T01:06:19.823Z,5.50
2023-03-21T01:08:52.530Z,5.39
2023-03-21T01:11:24.832Z,5.29
2023-03-21T01:13:57.896Z,5.11
2023-03-21T01:16:28.990Z,5.06
2023-03-21T01:18:56.379Z,5.08
2023-03-21T01:21:23.265Z,5.18
2023-03-21T01:23:50.024Z,5.08
2023-03-21T01:26:17.026Z,5.22
2023-03-21T01:28:44.826Z,5.13
2023-03-21T01:31:14.604Z,5.23
2023-03-21T01:33:42.154Z,5.12
2023-03-21T01:36:14.905Z,5.14
2023-03-21T01:38:42.500Z,5.23
2023-03-21T01:41:36.615Z,5.22
2023-03-21T01:44:07.579Z,5.21
2023-03-21T01:47:00.456Z,5.34
2023-03-21T01:49:39.388Z,5.11
2023-03-21T01:52:21.055Z,5.20
2023-03-21T01:54:56.408Z,5.24
2023-03-21T01:57:42.450Z,5.30
2023-03-21T02:00:12.929Z,5.28
2023-03-21T02:02:52.242Z,5.19
2023-03-21T02:05:24.659Z,5.25
2023-03-21T02:07:55.681Z,5.09
2023-03-21T02:10:22.682Z,5.04
2023-03-21T02:12:49.915Z,5.03
2023-03-21T02:15:16.895Z,5.09
2023-03-21T02:17:49.117Z,5.10
2023-03-21T02:20:36.770Z,5.10
2023-03-21T02:23:29.205Z,5.08
2023-03-21T02:26:09.929Z,5.13
2023-03-21T02:28:46.839Z,5.12
2023-03-21T02:31:37.000Z,5.12
2023-03-21T02:34:16.260Z,5.21
2023-03-21T02:36:49.024Z,5.20
2023-03-21T02:39:33.919Z,5.09
2023-03-21T02:42:21.424Z,5.12
2023-03-21T02:45:03.756Z,4.88
2023-03-21T02:47:54.232Z,5.21
2023-03-21T02:50:37.535Z,5.30
2023-03-21T02:53:08.898Z,5.25
2023-03-21T02:55:38.585Z,5.24
2023-03-21T02:58:13.384Z,5.30
2023-03-21T03:00:43.501Z,5.32
2023-03-21T03:03:18.137Z,5.41
2023-03-21T03:05:58.209Z,5.31
2023-03-21T03:09:01.106Z,5.28
2023-03-21T03:11:43.368Z,5.32
2023-03-21T03:17:37.434Z,5.38
2023-03-21T03:20:33.473Z,5.39
2023-03-21T03:23:29.873Z,5.35
2023-03-21T03:26:10.933Z,5.42
2023-03-21T03:28:44.211Z,5.33
2023-03-21T03:31:14.632Z,5.42
2023-03-21T03:33:46.986Z,5.39
2023-03-21T03:36:33.619Z,5.33
2023-03-21T03:39:05.102Z,5.34
2023-03-21T03:42:10.106Z,5.45
2023-03-21T03:44:39.733Z,5.23
2023-03-21T03:47:26.286Z,5.44
2023-03-21T03:50:13.802Z,5.49
2023-03-21T03:52:56.178Z,5.44
2023-03-21T03:55:27.281Z,5.46
2023-03-21T03:57:55.650Z,5.49
2023-03-21T04:00:22.391Z,5.53
2023-03-21T04:02:49.181Z,5.59
2023-03-21T04:05:21.340Z,5.58
2023-03-21T04:07:51.142Z,5.43
2023-03-21T04:10:19.179Z,5.42
2023-03-21T04:12:46.033Z,5.39
2023-03-21T04:15:13.075Z,5.37
2023-03-21T04:17:40.208Z,5.34
2023-03-21T04:20:13.931Z,5.41
2023-03-21T04:22:45.572Z,5.39
2023-03-21T04:25:19.006Z,5.31
2023-03-21T04:27:55.856Z,5.37
2023-03-21T04:30:24.962Z,5.34
2023-03-21T04:32:56.948Z,5.19
2023-03-21T04:35:24.973Z,5.16
2023-03-21T04:37:51.874Z,5.13
2023-03-21T04:40:19.095Z,5.18
2023-03-21T04:42:48.391Z,5.12
2023-03-21T04:45:16.668Z,5.14
2023-03-21T04:47:43.466Z,5.04
2023-03-21T04:50:11.540Z,5.00
2023-03-21T04:52:38.591Z,4.95
2023-03-21T04:55:10.205Z,4.81
2023-03-21T04:57:38.427Z,4.78
2023-03-21T05:00:14.746Z,4.78
2023-03-21T05:02:41.694Z,4.65
2023-03-21T05:05:11.413Z,4.64
2023-03-21T05:07:41.981Z,4.52
2023-03-21T05:10:12.165Z,4.52
2023-03-21T05:12:39.519Z,4.54
2023-03-21T05:15:07.419Z,4.45
2023-03-21T05:17:34.175Z,4.30
2023-03-21T05:20:00.978Z,4.32
2023-03-21T05:22:29.233Z,4.33
2023-03-21T05:24:56.244Z,4.27
2023-03-21T05:27:35.832Z,4.25
2023-03-21T05:30:15.866Z,4.22
2023-03-21T05:32:43.234Z,4.21
2023-03-21T05:35:10.600Z,4.13
2023-03-21T05:37:38.559Z,4.04
2023-03-21T05:40:07.374Z,3.89
2023-03-21T05:42:34.160Z,3.65
2023-03-21T05:45:01.181Z,3.67
2023-03-21T05:47:27.969Z,3.76
2023-03-21T05:49:54.748Z,3.57
2023-03-21T05:52:21.872Z,3.57
2023-03-21T05:54:48.808Z,3.43
2023-03-21T05:57:15.766Z,3.41
2023-03-21T05:59:42.529Z,3.42
2023-03-21T06:02:09.252Z,3.26
2023-03-21T06:04:35.981Z,3.31
2023-03-21T06:07:02.839Z,3.30
2023-03-21T06:09:30.091Z,3.26
2023-03-21T06:11:57.812Z,3.38
2023-03-21T06:14:25.421Z,3.23
2023-03-21T06:16:54.059Z,3.29
2023-03-21T06:19:21.983Z,3.39
2023-03-21T06:21:49.471Z,3.50
2023-03-21T06:24:17.883Z,3.34
2023-03-21T06:26:45.837Z,3.46
2023-03-21T06:29:12.641Z,3.55
2023-03-21T06:31:39.779Z,3.53
2023-03-21T06:34:06.920Z,3.55
2023-03-21T06:36:34.052Z,3.55
2023-03-21T06:39:00.975Z,3.61
2023-03-21T06:41:27.816Z,3.66
2023-03-21T06:43:54.597Z,3.68
2023-03-21T06:46:21.401Z,3.87
2023-03-21T06:48:48.288Z,3.83
2023-03-21T06:51:16.296Z,3.89
2023-03-21T06:53:44.654Z,3.97
2023-03-21T06:56:13.816Z,4.06
2023-03-21T06:58:41.034Z,3.90
2023-03-21T07:01:08.401Z,4.13
2023-03-21T07:03:35.763Z,3.93
2023-03-21T07:06:11.818Z,4.18
2023-03-21T07:08:40.154Z,4.17
2023-03-21T07:11:08.751Z,4.25
2023-03-21T07:13:35.748Z,4.34
2023-03-21T07:16:02.778Z,4.42
2023-03-21T07:18:31.039Z,4.51
2023-03-21T07:20:58.617Z,4.42
2023-03-21T07:23:27.178Z,4.65
2023-03-21T07:25:54.937Z,4.66
2023-03-21T07:28:23.132Z,4.85
2023-03-21T07:30:56.755Z,4.97
2023-03-21T07:33:24.800Z,4.91
2023-03-21T07:35:53.661Z,5.13
2023-03-21T07:38:21.692Z,5.21
2023-03-21T07:40:49.064Z,5.22
2023-03-21T07:43:16.874Z,5.39
2023-03-21T07:45:45.018Z,5.46
2023-03-21T07:48:13.249Z,5.61
2023-03-21T07:50:41.460Z,5.72
2023-03-21T07:53:09.216Z,5.80
2023-03-21T07:55:36.653Z,5.95
2023-03-21T07:58:04.518Z,6.13
2023-03-21T08:00:31.982Z,6.27
2023-03-21T08:02:59.784Z,6.55
2023-03-21T08:05:38.003Z,6.72
2023-03-21T08:08:05.939Z,6.85
2023-03-21T08:10:33.651Z,7.00
2023-03-21T08:13:00.703Z,7.23
2023-03-21T08:15:27.708Z,7.30
2023-03-21T08:17:54.592Z,7.49
2023-03-21T08:20:23.622Z,7.54
2023-03-21T08:22:51.108Z,7.72
2023-03-21T08:25:20.497Z,7.91
2023-03-21T08:27:48.934Z,8.03
2023-03-21T08:30:22.937Z,8.29
2023-03-21T08:32:50.158Z,8.47
2023-03-21T08:35:19.509Z,8.61
2023-03-21T08:37:46.301Z,8.93
2023-03-21T08:40:17.049Z,9.16
2023-03-21T08:42:46.559Z,9.48
2023-03-21T08:45:15.644Z,9.60
2023-03-21T08:47:43.127Z,10.03
2023-03-21T08:50:15.656Z,10.15
2023-03-21T08:52:42.878Z,10.38
2023-03-21T08:55:11.101Z,10.62
2023-03-21T08:57:37.988Z,10.78
2023-03-21T09:00:14.648Z,11.12
2023-03-21T09:02:42.474Z,11.23
2023-03-21T09:05:12.192Z,11.58
2023-03-21T09:07:40.630Z,11.66
2023-03-21T09:10:21.083Z,11.73
2023-03-21T09:12:52.760Z,12.07
2023-03-21T09:15:24.640Z,12.26
2023-03-21T09:17:53.341Z,12.21
2023-03-21T09:20:30.920Z,12.26
2023-03-21T09:22:59.864Z,12.34
2023-03-21T09:25:29.573Z,12.31
2023-03-21T09:27:56.600Z,12.31
2023-03-21T09:30:26.079Z,12.24
2023-03-21T09:32:53.688Z,12.37
2023-03-21T09:35:20.930Z,12.67
2023-03-21T09:37:50.069Z,12.82
2023-03-21T09:41:25.860Z,13.06
2023-03-21T09:44:17.330Z,13.18
2023-03-21T09:46:48.437Z,13.14
2023-03-21T09:49:31.371Z,13.22
2023-03-21T09:52:06.688Z,13.29
2023-03-21T09:54:38.301Z,13.21
2023-03-21T09:57:34.390Z,13.40
2023-03-21T10:00:15.985Z,13.65
2023-03-21T10:02:51.882Z,13.78
2023-03-21T10:05:22.762Z,13.96
2023-03-21T10:08:14.820Z,14.01
2023-03-21T10:10:49.605Z,14.22
2023-03-21T10:13:47.746Z,14.29
2023-03-21T10:16:20.356Z,14.40
2023-03-21T10:18:49.082Z,14.60
2023-03-21T10:21:56.449Z,14.55
2023-03-21T10:24:25.685Z,14.72
2023-03-21T10:26:54.874Z,14.77
2023-03-21T10:29:29.673Z,14.98
2023-03-21T10:31:56.753Z,15.19
2023-03-21T10:34:51.114Z,15.38
2023-03-21T10:39:49.628Z,15.49
2023-03-21T10:42:24.901Z,15.51
2023-03-21T10:44:56.534Z,15.54
2023-03-21T10:47:34.713Z,15.51
2023-03-21T10:50:16.230Z,15.38
2023-03-21T10:52:53.989Z,15.35
2023-03-21T10:55:33.990Z,15.35
2023-03-21T10:58:10.931Z,15.46
2023-03-21T11:00:41.911Z,15.50
2023-03-21T11:03:23.094Z,15.54
2023-03-21T11:05:57.148Z,15.46
2023-03-21T11:08:23.986Z,15.50
2023-03-21T11:11:06.396Z,15.59
2023-03-21T11:13:38.101Z,15.55
2023-03-21T11:16:11.721Z,15.53
2023-03-21T11:18:50.482Z,15.73
2023-03-21T11:21:18.041Z,15.88
2023-03-21T11:23:50.190Z,15.94
2023-03-21T11:26:32.420Z,15.80
2023-03-21T11:28:59.775Z,15.86
2023-03-21T11:31:40.636Z,15.88
2023-03-21T11:34:09.573Z,15.87
2023-03-21T11:36:41.623Z,15.99
2023-03-21T11:39:11.232Z,16.02
2023-03-21T11:41:41.482Z,15.73
2023-03-21T11:44:30.964Z,15.76
2023-03-21T11:46:58.539Z,15.79
2023-03-21T11:49:26.307Z,15.80
2023-03-21T11:52:29.459Z,15.96
2023-03-21T11:55:26.244Z,15.86
2023-03-21T11:58:22.018Z,15.69
2023-03-21T12:01:03.821Z,15.57
2023-03-21T12:04:05.496Z,15.59
2023-03-21T12:06:48.480Z,15.57
2023-03-21T12:09:26.679Z,15.63
2023-03-21T12:12:10.535Z,15.71
2023-03-21T12:14:45.952Z,15.77
2023-03-21T12:17:25.160Z,15.73
2023-03-21T12:20:42.696Z,15.82
2023-03-21T12:23:30.472Z,15.90
2023-03-21T12:26:31.593Z,15.80
2023-03-21T12:29:15.201Z,15.73
2023-03-21T12:31:49.207Z,15.85
2023-03-21T12:34:49.211Z,15.90
2023-03-21T12:37:38.809Z,15.77
2023-03-21T12:40:27.172Z,15.65
2023-03-21T12:43:28.945Z,15.78
2023-03-21T12:46:01.574Z,15.81
2023-03-21T12:49:22.564Z,15.81
2023-03-21T12:52:00.475Z,15.80
2023-03-21T12:54:38.189Z,15.93
2023-03-21T12:57:26.673Z,16.02
2023-03-21T12:59:53.321Z,16.14
2023-03-21T13:02:32.049Z,16.26
2023-03-21T13:05:16.879Z,16.33
2023-03-21T13:07:49.063Z,16.35
2023-03-21T13:10:23.234Z,16.39
2023-03-21T13:13:40.173Z,16.38
2023-03-21T13:17:00.927Z,16.50
2023-03-21T13:19:44.359Z,16.60
2023-03-21T13:22:27.123Z,16.43
2023-03-21T13:25:07.633Z,16.42
2023-03-21T13:27:41.770Z,16.48
2023-03-21T13:30:14.690Z,16.69
2023-03-21T13:32:43.417Z,16.77
2023-03-21T13:35:19.750Z,16.96
2023-03-21T13:38:02.584Z,17.06
2023-03-21T13:40:39.633Z,17.00
2023-03-21T13:43:44.752Z,16.95
2023-03-21T13:46:20.450Z,16.92
2023-03-21T13:48:58.880Z,16.94
2023-03-21T13:51:29.274Z,16.81
2023-03-21T13:54:09.016Z,16.93
2023-03-21T13:56:44.839Z,16.90
2023-03-21T13:59:40.247Z,16.78
2023-03-21T14:02:33.335Z,16.62
2023-03-21T14:05:22.844Z,16.49
2023-03-21T14:07:59.309Z,16.38
2023-03-21T14:10:43.191Z,16.42
2023-03-21T14:13:17.903Z,16.44
2023-03-21T14:15:55.286Z,16.64
2023-03-21T14:18:34.967Z,16.60
2023-03-21T14:21:24.693Z,16.59
2023-03-21T14:24:13.256Z,16.54
2023-03-21T14:26:51.337Z,16.60
2023-03-21T14:29:27.220Z,16.65
2023-03-21T14:31:56.712Z,16.55
2023-03-21T14:34:26.139Z,16.57
2023-03-21T14:36:58.265Z,16.62
2023-03-21T14:39:33.536Z,16.61
2023-03-21T14:42:08.984Z,16.71
2023-03-21T14:44:54.026Z,16.71
2023-03-21T14:47:25.520Z,16.76
2023-03-21T14:49:53.019Z,16.60
2023-03-21T14:52:27.757Z,16.70
2023-03-21T14:54:55.493Z,16.67
2023-03-21T14:57:27.730Z,16.67
2023-03-21T14:59:58.014Z,16.77
2023-03-21T15:02:35.435Z,16.82
2023-03-21T15:05:20.370Z,16.65
2023-03-21T15:08:14.746Z,16.49
2023-03-21T15:10:41.910Z,16.34
2023-03-21T15:13:21.084Z,16.37
2023-03-21T15:15:48.593Z,16.25
2023-03-21T15:18:22.593Z,16.12
2023-03-21T15:20:50.919Z,16.08
2023-03-21T15:23:32.212Z,16.16
2023-03-21T15:26:03.787Z,16.00
2023-03-21T15:28:30.824Z,15.98
2023-03-21T15:30:57.848Z,15.90
2023-03-21T15:33:26.206Z,15.93
2023-03-21T15:36:00.718Z,15.83
2023-03-21T15:38:54.530Z,15.85
2023-03-21T15:41:21.243Z,15.87
2023-03-21T15:44:21.397Z,15.83
2023-03-21T15:46:49.302Z,15.77
2023-03-21T15:49:16.316Z,15.65
2023-03-21T15:51:47.789Z,15.56
2023-03-21T15:54:23.978Z,15.59
2023-03-21T15:56:56.424Z,15.46
2023-03-21T15:59:27.799Z,15.28
2023-03-21T16:01:54.594Z,15.34
2023-03-21T16:04:23.682Z,15.30
2023-03-21T16:07:17.343Z,15.30
2023-03-21T16:09:46.921Z,15.36
2023-03-21T16:12:17.541Z,15.41
2023-03-21T16:14:47.398Z,15.29
2023-03-21T16:17:39.599Z,15.37
2023-03-21T16:20:40.880Z,15.37
2023-03-21T16:23:14.151Z,15.23
2023-03-21T16:25:44.348Z,15.29
2023-03-21T16:28:16.905Z,15.32
2023-03-21T16:30:44.868Z,15.32
2023-03-21T16:33:13.367Z,15.31
2023-03-21T16:35:40.554Z,15.28
2023-03-21T16:38:07.647Z,15.12
2023-03-21T16:40:39.591Z,15.07
2023-03-21T16:43:07.844Z,14.97
2023-03-21T16:45:34.825Z,14.95
2023-03-21T16:48:01.817Z,14.93
2023-03-21T16:50:47.781Z,14.89
2023-03-21T16:53:14.610Z,14.83
2023-03-21T16:55:42.000Z,14.81
2023-03-21T16:58:08.851Z,14.75
2023-03-21T17:00:37.217Z,14.75
2023-03-21T17:03:14.746Z,14.68
2023-03-21T17:05:41.586Z,14.64
2023-03-21T17:08:14.555Z,14.60
2023-03-21T17:10:41.505Z,14.52
2023-03-21T17:13:08.307Z,14.51
2023-03-21T17:15:35.059Z,14.51
2023-03-21T17:18:01.946Z,14.44
2023-03-21T17:20:40.381Z,14.35
2023-03-21T17:23:07.862Z,14.24
2023-03-21T17:25:35.076Z,14.27
2023-03-21T17:28:02.054Z,14.17
2023-03-21T17:30:33.702Z,14.13
2023-03-21T17:33:01.129Z,14.03
2023-03-21T17:35:28.777Z,13.95
2023-03-21T17:37:58.477Z,13.82
2023-03-21T17:40:31.861Z,13.80
2023-03-21T17:43:01.115Z,13.74
2023-03-21T17:45:27.929Z,13.59
2023-03-21T17:47:55.149Z,13.55
2023-03-21T17:50:27.752Z,13.46
2023-03-21T17:52:57.431Z,13.34
2023-03-21T17:55:24.839Z,13.33
2023-03-21T17:57:51.723Z,13.25
2023-03-21T18:00:25.694Z,13.25
2023-03-21T18:02:53.069Z,13.18
2023-03-21T18:05:24.986Z,13.10
2023-03-21T18:10:41.148Z,12.92
2023-03-21T18:13:08.710Z,12.86
2023-03-21T18:15:38.062Z,12.81
2023-03-21T18:18:05.502Z,12.76
2023-03-21T18:20:51.174Z,12.75
2023-03-21T18:23:19.333Z,12.63
2023-03-21T18:25:47.016Z,12.63
2023-03-21T18:28:14.137Z,12.51
2023-03-21T18:31:09.616Z,12.49
2023-03-21T18:33:28.653Z,12.43
2023-03-21T18:35:59.647Z,12.45
2023-03-21T18:38:28.349Z,12.22
2023-03-21T18:40:56.363Z,12.25
2023-03-21T18:46:10.534Z,12.17
2023-03-21T18:48:37.509Z,12.11
2023-03-21T18:51:04.907Z,12.07
2023-03-21T18:53:31.848Z,11.98
2023-03-21T18:55:58.688Z,11.98
2023-03-21T18:58:25.750Z,11.92
2023-03-21T19:00:53.972Z,11.79
2023-03-21T19:03:35.193Z,11.76
2023-03-21T19:06:05.000Z,11.64
2023-03-21T19:08:34.076Z,11.67
2023-03-21T19:11:05.611Z,11.57
2023-03-21T19:13:34.219Z,11.58
2023-03-21T19:16:02.611Z,11.52
2023-03-21T19:18:54.157Z,11.39
2023-03-21T19:21:21.691Z,11.33
2023-03-21T19:26:35.439Z,11.26
2023-03-21T19:29:02.240Z,11.25
2023-03-21T19:31:28.958Z,11.21
2023-03-21T19:33:55.786Z,11.11
2023-03-21T19:36:23.651Z,11.10
2023-03-21T19:38:51.183Z,11.13
2023-03-21T19:41:20.237Z,11.10
2023-03-21T19:43:54.654Z,11.05
2023-03-21T19:46:25.479Z,10.89
2023-03-21T19:48:56.950Z,10.86
2023-03-21T19:51:29.436Z,10.81
2023-03-21T19:54:03.326Z,10.87
2023-03-21T19:56:31.524Z,10.84
2023-03-21T19:58:59.198Z,10.83
2023-03-21T20:01:26.744Z,10.77
2023-03-21T20:03:54.172Z,10.69
2023-03-21T20:06:24.632Z,10.61
2023-03-21T20:11:39.128Z,10.68
2023-03-21T20:14:06.501Z,10.63
2023-03-21T20:16:36.034Z,10.60
2023-03-21T20:19:10.236Z,10.64
2023-03-21T20:21:47.636Z,10.58
2023-03-21T20:24:19.261Z,10.62
2023-03-21T20:26:47.134Z,10.54
2023-03-21T20:32:00.859Z,10.38
2023-03-21T20:34:28.786Z,10.44
2023-03-21T20:36:58.425Z,10.27
2023-03-21T20:39:26.525Z,10.35
2023-03-21T20:41:54.939Z,10.40
2023-03-21T20:44:48.451Z,10.38
2023-03-21T20:47:08.767Z,10.48
2023-03-21T20:49:35.996Z,10.47
2023-03-21T20:54:54.327Z,10.59
2023-03-21T20:57:21.317Z,10.59
2023-03-21T20:59:48.149Z,10.45
2023-03-21T21:02:15.147Z,10.67
2023-03-21T21:07:29.392Z,10.52
2023-03-21T21:09:56.344Z,10.42
2023-03-21T21:12:27.752Z,10.64
2023-03-21T21:14:56.208Z,10.52
2023-03-21T21:17:42.920Z,10.48
2023-03-21T21:20:17.844Z,10.47
2023-03-21T21:22:59.090Z,10.42
2023-03-21T21:25:29.066Z,10.35
2023-03-21T21:27:56.139Z,10.42
2023-03-21T21:30:22.968Z,10.35
2023-03-21T21:32:49.959Z,10.34
2023-03-21T21:35:19.514Z,10.31
2023-03-21T21:37:46.977Z,10.35
2023-03-21T21:40:15.811Z,10.37
2023-03-21T21:42:44.179Z,10.38
2023-03-21T21:45:13.287Z,10.35
2023-03-21T21:47:40.863Z,10.39
2023-03-21T21:50:08.450Z,10.36
2023-03-21T21:52:36.049Z,10.35
2023-03-21T21:55:04.139Z,10.34
2023-03-21T21:57:34.335Z,10.42
2023-03-21T22:00:06.408Z,10.41
2023-03-21T22:02:33.307Z,10.52
2023-03-21T22:05:00.137Z,10.34
2023-03-21T22:07:27.817Z,10.34
2023-03-21T22:09:54.906Z,10.37
2023-03-21T22:12:21.784Z,10.33
2023-03-21T22:14:48.661Z,10.34
2023-03-21T22:17:15.427Z,10.33
2023-03-21T22:19:43.513Z,10.29
2023-03-21T22:22:11.494Z,10.26
2023-03-21T22:24:38.309Z,10.23
2023-03-21T22:27:05.108Z,10.20
2023-03-21T22:29:31.942Z,10.19
2023-03-21T22:31:58.746Z,10.13
2023-03-21T22:34:27.433Z,10.07
2023-03-21T22:36:55.932Z,10.01
2023-03-21T22:39:26.545Z,9.90
2023-03-21T22:42:00.944Z,10.05
2023-03-21T22:44:34.587Z,10.04
2023-03-21T22:47:04.080Z,10.08
2023-03-21T22:49:31.926Z,9.96
2023-03-21T22:51:59.954Z,9.90
2023-03-21T22:54:27.305Z,9.95
2023-03-21T22:56:54.034Z,9.93
2023-03-21T22:59:21.204Z,9.96
2023-03-21T23:01:48.568Z,10.00
2023-03-21T23:04:15.987Z,9.93
2023-03-21T23:06:43.371Z,9.91
2023-03-21T23:09:10.869Z,9.99
2023-03-21T23:11:38.071Z,9.94
2023-03-21T23:14:08.358Z,9.92
2023-03-21T23:16:38.422Z,9.98
2023-03-21T23:19:06.270Z,9.94
2023-03-21T23:21:34.666Z,9.87
2023-03-21T23:24:01.421Z,9.91
2023-03-21T23:26:29.090Z,9.95
2023-03-21T23:28:56.006Z,9.95
2023-03-21T23:31:26.436Z,9.89
2023-03-21T23:33:54.899Z,9.84
2023-03-21T23:36:22.628Z,9.84
2023-03-21T23:38:50.498Z,9.81
2023-03-21T23:41:21.356Z,9.83
2023-03-21T23:43:48.834Z,9.84
2023-03-21T23:46:17.135Z,9.81
2023-03-21T23:48:45.155Z,9.78
2023-03-21T23:51:15.136Z,9.73
2023-03-21T23:53:42.560Z,9.71
2023-03-21T23:56:20.886Z,9.67
2023-03-21T23:58:49.932Z,9.53
